sensor_id;sensor_type;location;lat;lon;timestamp;P1;durP1;ratioP1;P2;durP2;ratioP2
7541;SDS011;3812;50.006;8.230;2023-03-01T00:01:49;15.60;;;10.67;;
7541;SDS011;3812;50.006;8.230;2023-03-01T00:04:16;17.73;;;10.90;;
7541;SDS011;3812;50.006;8.230;2023-03-01T00:06:44;15.13;;;10.13;;
7541;SDS011;3812;50.006;8.230;2023-03-01T00:09:11;17.40;;;11.07;;
7541;SDS011;3812;50.006;8.230;2023-03-01T00:11:38;15.60;;;10.47;;
7541;SDS011;3812;50.006;8.230;2023-03-01T00:14:08;15.90;;;10.20;;
7541;SDS011;3812;50.006;8.230;2023-03-01T00:16:40;15.83;;;11.07;;
7541;SDS011;3812;50.006;8.230;2023-03-01T00:19:12;14.23;;;10.37;;
7541;SDS011;3812;50.006;8.230;2023-03-01T00:21:39;18.10;;;10.60;;
7541;SDS011;3812;50.006;8.230;2023-03-01T00:24:07;15.60;;;11.00;;
7541;SDS011;3812;50.006;8.230;2023-03-01T00:26:35;14.27;;;9.53;;
7541;SDS011;3812;50.006;8.230;2023-03-01T00:29:06;14.27;;;10.87;;
7541;SDS011;3812;50.006;8.230;2023-03-01T00:31:42;14.03;;;10.10;;
7541;SDS011;3812;50.006;8.230;2023-03-01T00:34:12;16.00;;;10.40;;
7541;SDS011;3812;50.006;8.230;2023-03-01T00:36:40;14.07;;;10.43;;
7541;SDS011;3812;50.006;8.230;2023-03-01T00:39:11;14.93;;;10.50;;
7541;SDS011;3812;50.006;8.230;2023-03-01T00:41:40;15.07;;;10.23;;
7541;SDS011;3812;50.006;8.230;2023-03-01T00:44:10;13.87;;;10.27;;
7541;SDS011;3812;50.006;8.230;2023-03-01T00:46:51;15.17;;;10.30;;
7541;SDS011;3812;50.006;8.230;2023-03-01T00:49:18;14.17;;;10.47;;
7541;SDS011;3812;50.006;8.230;2023-03-01T00:51:46;14.23;;;10.37;;
7541;SDS011;3812;50.006;8.230;2023-03-01T00:54:16;14.77;;;10.30;;
7541;SDS011;3812;50.006;8.230;2023-03-01T00:56:47;14.73;;;10.13;;
7541;SDS011;3812;50.006;8.230;2023-03-01T00:59:17;13.33;;;9.77;;
7541;SDS011;3812;50.006;8.230;2023-03-01T01:01:44;13.40;;;9.97;;
7541;SDS011;3812;50.006;8.230;2023-03-01T01:04:13;15.40;;;10.37;;
7541;SDS011;3812;50.006;8.230;2023-03-01T01:06:41;14.87;;;10.00;;
7541;SDS011;3812;50.006;8.230;2023-03-01T01:09:15;13.60;;;9.37;;
7541;SDS011;3812;50.006;8.230;2023-03-01T01:11:46;13.17;;;9.90;;
7541;SDS011;3812;50.006;8.230;2023-03-01T01:14:14;14.33;;;10.47;;
7541;SDS011;3812;50.006;8.230;2023-03-01T01:16:44;18.93;;;11.03;;
7541;SDS011;3812;50.006;8.230;2023-03-01T01:19:14;18.40;;;11.50;;
7541;SDS011;3812;50.006;8.230;2023-03-01T01:21:55;16.47;;;10.67;;
7541;SDS011;3812;50.006;8.230;2023-03-01T01:24:22;18.20;;;11.37;;
7541;SDS011;3812;50.006;8.230;2023-03-01T01:26:50;15.83;;;10.97;;
7541;SDS011;3812;50.006;8.230;2023-03-01T01:29:24;17.73;;;10.67;;
7541;SDS011;3812;50.006;8.230;2023-03-01T01:31:51;16.33;;;10.80;;
7541;SDS011;3812;50.006;8.230;2023-03-01T01:34:22;14.80;;;10.80;;
7541;SDS011;3812;50.006;8.230;2023-03-01T01:36:51;17.50;;;10.93;;
7541;SDS011;3812;50.006;8.230;2023-03-01T01:39:19;16.83;;;10.77;;
7541;SDS011;3812;50.006;8.230;2023-03-01T01:41:47;16.77;;;11.20;;
7541;SDS011;3812;50.006;8.230;2023-03-01T01:44:16;16.83;;;11.07;;
7541;SDS011;3812;50.006;8.230;2023-03-01T01:46:46;15.77;;;10.80;;
7541;SDS011;3812;50.006;8.230;2023-03-01T01:52:07;16.87;;;11.43;;
7541;SDS011;3812;50.006;8.230;2023-03-01T01:54:48;16.80;;;11.23;;
7541;SDS011;3812;50.006;8.230;2023-03-01T01:57:26;18.40;;;11.37;;
7541;SDS011;3812;50.006;8.230;2023-03-01T02:00:24;18.27;;;11.67;;
7541;SDS011;3812;50.006;8.230;2023-03-01T02:02:54;16.40;;;11.13;;
7541;SDS011;3812;50.006;8.230;2023-03-01T02:05:24;17.73;;;11.03;;
7541;SDS011;3812;50.006;8.230;2023-03-01T02:07:54;21.00;;;11.80;;
7541;SDS011;3812;50.006;8.230;2023-03-01T02:10:21;18.00;;;11.43;;
7541;SDS011;3812;50.006;8.230;2023-03-01T02:12:50;15.90;;;10.63;;
7541;SDS011;3812;50.006;8.230;2023-03-01T02:15:18;17.40;;;11.40;;
7541;SDS011;3812;50.006;8.230;2023-03-01T02:17:46;17.77;;;11.63;;
7541;SDS011;3812;50.006;8.230;2023-03-01T02:20:14;16.83;;;12.20;;
7541;SDS011;3812;50.006;8.230;2023-03-01T02:22:44;16.73;;;11.50;;
7541;SDS011;3812;50.006;8.230;2023-03-01T02:25:21;18.27;;;11.40;;
7541;SDS011;3812;50.006;8.230;2023-03-01T02:27:49;18.65;;;13.85;;
7541;SDS011;3812;50.006;8.230;2023-03-01T02:30:19;18.30;;;13.52;;
7541;SDS011;3812;50.006;8.230;2023-03-01T02:32:47;16.60;;;12.73;;
7541;SDS011;3812;50.006;8.230;2023-03-01T02:35:15;17.73;;;13.65;;
7541;SDS011;3812;50.006;8.230;2023-03-01T02:37:43;17.60;;;13.15;;
7541;SDS011;3812;50.006;8.230;2023-03-01T02:40:12;18.53;;;13.87;;
7541;SDS011;3812;50.006;8.230;2023-03-01T02:42:43;17.88;;;13.20;;
7541;SDS011;3812;50.006;8.230;2023-03-01T02:45:13;16.60;;;12.15;;
7541;SDS011;3812;50.006;8.230;2023-03-01T02:47:42;16.30;;;12.77;;
7541;SDS011;3812;50.006;8.230;2023-03-01T02:50:11;18.30;;;13.60;;
7541;SDS011;3812;50.006;8.230;2023-03-01T02:52:43;16.42;;;12.90;;
7541;SDS011;3812;50.006;8.230;2023-03-01T02:55:13;17.95;;;13.30;;
7541;SDS011;3812;50.006;8.230;2023-03-01T02:57:42;19.27;;;13.40;;
7541;SDS011;3812;50.006;8.230;2023-03-01T03:00:10;16.33;;;13.13;;
7541;SDS011;3812;50.006;8.230;2023-03-01T03:02:45;17.02;;;12.57;;
7541;SDS011;3812;50.006;8.230;2023-03-01T03:05:17;17.48;;;12.65;;
7541;SDS011;3812;50.006;8.230;2023-03-01T03:07:45;17.88;;;13.65;;
7541;SDS011;3812;50.006;8.230;2023-03-01T03:10:18;16.83;;;13.07;;
7541;SDS011;3812;50.006;8.230;2023-03-01T03:12:48;16.52;;;12.25;;
7541;SDS011;3812;50.006;8.230;2023-03-01T03:15:16;17.40;;;12.80;;
7541;SDS011;3812;50.006;8.230;2023-03-01T03:17:43;16.65;;;13.18;;
7541;SDS011;3812;50.006;8.230;2023-03-01T03:20:13;16.50;;;13.05;;
7541;SDS011;3812;50.006;8.230;2023-03-01T03:22:44;17.50;;;13.33;;
7541;SDS011;3812;50.006;8.230;2023-03-01T03:25:11;17.30;;;13.05;;
7541;SDS011;3812;50.006;8.230;2023-03-01T03:27:40;18.25;;;13.27;;
7541;SDS011;3812;50.006;8.230;2023-03-01T03:30:08;16.80;;;12.48;;
7541;SDS011;3812;50.006;8.230;2023-03-01T03:32:37;16.70;;;13.00;;
7541;SDS011;3812;50.006;8.230;2023-03-01T03:35:05;17.02;;;12.63;;
7541;SDS011;3812;50.006;8.230;2023-03-01T03:37:36;15.32;;;12.05;;
7541;SDS011;3812;50.006;8.230;2023-03-01T03:40:21;16.10;;;12.38;;
7541;SDS011;3812;50.006;8.230;2023-03-01T03:42:48;16.33;;;12.43;;
7541;SDS011;3812;50.006;8.230;2023-03-01T03:45:16;16.02;;;12.68;;
7541;SDS011;3812;50.006;8.230;2023-03-01T03:47:44;16.65;;;12.57;;
7541;SDS011;3812;50.006;8.230;2023-03-01T03:50:11;17.08;;;12.82;;
7541;SDS011;3812;50.006;8.230;2023-03-01T03:52:40;17.15;;;13.13;;
7541;SDS011;3812;50.006;8.230;2023-03-01T03:55:08;15.15;;;12.85;;
7541;SDS011;3812;50.006;8.230;2023-03-01T03:57:36;17.70;;;13.07;;
7541;SDS011;3812;50.006;8.230;2023-03-01T04:00:03;17.13;;;13.75;;
7541;SDS011;3812;50.006;8.230;2023-03-01T04:02:38;17.35;;;13.02;;
7541;SDS011;3812;50.006;8.230;2023-03-01T04:05:07;17.77;;;13.70;;
7541;SDS011;3812;50.006;8.230;2023-03-01T04:07:34;18.52;;;13.70;;
7541;SDS011;3812;50.006;8.230;2023-03-01T04:10:03;17.08;;;13.20;;
7541;SDS011;3812;50.006;8.230;2023-03-01T04:12:31;17.53;;;13.97;;
7541;SDS011;3812;50.006;8.230;2023-03-01T04:14:59;18.93;;;13.90;;
7541;SDS011;3812;50.006;8.230;2023-03-01T04:17:26;17.27;;;13.40;;
7541;SDS011;3812;50.006;8.230;2023-03-01T04:19:53;18.25;;;13.48;;
7541;SDS011;3812;50.006;8.230;2023-03-01T04:22:21;18.95;;;13.73;;
7541;SDS011;3812;50.006;8.230;2023-03-01T04:24:48;18.08;;;14.27;;
7541;SDS011;3812;50.006;8.230;2023-03-01T04:27:16;16.90;;;11.63;;
7541;SDS011;3812;50.006;8.230;2023-03-01T04:29:44;18.07;;;11.53;;
7541;SDS011;3812;50.006;8.230;2023-03-01T04:32:11;17.67;;;11.63;;
7541;SDS011;3812;50.006;8.230;2023-03-01T04:34:41;18.43;;;11.83;;
7541;SDS011;3812;50.006;8.230;2023-03-01T04:37:08;21.90;;;13.30;;
7541;SDS011;3812;50.006;8.230;2023-03-01T04:39:35;20.97;;;12.83;;
7541;SDS011;3812;50.006;8.230;2023-03-01T04:42:10;21.53;;;12.67;;
7541;SDS011;3812;50.006;8.230;2023-03-01T04:44:39;21.57;;;12.47;;
7541;SDS011;3812;50.006;8.230;2023-03-01T04:47:06;19.73;;;12.53;;
7541;SDS011;3812;50.006;8.230;2023-03-01T04:49:33;19.57;;;12.83;;
7541;SDS011;3812;50.006;8.230;2023-03-01T04:52:01;20.63;;;12.50;;
7541;SDS011;3812;50.006;8.230;2023-03-01T04:54:28;20.33;;;12.53;;
7541;SDS011;3812;50.006;8.230;2023-03-01T04:56:55;23.40;;;13.03;;
7541;SDS011;3812;50.006;8.230;2023-03-01T04:59:22;20.27;;;13.03;;
7541;SDS011;3812;50.006;8.230;2023-03-01T05:01:51;17.27;;;11.63;;
7541;SDS011;3812;50.006;8.230;2023-03-01T05:04:20;20.20;;;12.17;;
7541;SDS011;3812;50.006;8.230;2023-03-01T05:06:48;19.37;;;12.17;;
7541;SDS011;3812;50.006;8.230;2023-03-01T05:09:15;18.57;;;12.00;;
7541;SDS011;3812;50.006;8.230;2023-03-01T05:11:42;18.90;;;12.00;;
7541;SDS011;3812;50.006;8.230;2023-03-01T05:14:10;20.23;;;12.50;;
7541;SDS011;3812;50.006;8.230;2023-03-01T05:16:37;19.53;;;12.17;;
7541;SDS011;3812;50.006;8.230;2023-03-01T05:19:05;20.00;;;13.80;;
7541;SDS011;3812;50.006;8.230;2023-03-01T05:21:40;23.00;;;12.20;;
7541;SDS011;3812;50.006;8.230;2023-03-01T05:24:21;20.07;;;12.40;;
7541;SDS011;3812;50.006;8.230;2023-03-01T05:26:49;22.17;;;13.20;;
7541;SDS011;3812;50.006;8.230;2023-03-01T05:29:17;17.10;;;12.17;;
7541;SDS011;3812;50.006;8.230;2023-03-01T05:31:50;19.70;;;13.20;;
7541;SDS011;3812;50.006;8.230;2023-03-01T05:34:22;20.03;;;13.70;;
7541;SDS011;3812;50.006;8.230;2023-03-01T05:36:50;21.93;;;13.77;;
7541;SDS011;3812;50.006;8.230;2023-03-01T05:39:19;20.90;;;12.50;;
7541;SDS011;3812;50.006;8.230;2023-03-01T05:41:47;21.07;;;13.37;;
7541;SDS011;3812;50.006;8.230;2023-03-01T05:44:15;18.43;;;12.67;;
7541;SDS011;3812;50.006;8.230;2023-03-01T05:46:42;25.37;;;13.90;;
7541;SDS011;3812;50.006;8.230;2023-03-01T05:49:10;19.47;;;12.60;;
7541;SDS011;3812;50.006;8.230;2023-03-01T05:51:39;19.50;;;12.90;;
7541;SDS011;3812;50.006;8.230;2023-03-01T05:54:07;19.77;;;12.50;;
7541;SDS011;3812;50.006;8.230;2023-03-01T05:56:35;18.17;;;12.63;;
7541;SDS011;3812;50.006;8.230;2023-03-01T05:59:03;19.10;;;13.03;;
7541;SDS011;3812;50.006;8.230;2023-03-01T06:01:31;20.93;;;13.17;;
7541;SDS011;3812;50.006;8.230;2023-03-01T06:03:58;20.57;;;12.43;;
7541;SDS011;3812;50.006;8.230;2023-03-01T06:06:26;20.83;;;13.37;;
7541;SDS011;3812;50.006;8.230;2023-03-01T06:08:54;19.37;;;13.17;;
7541;SDS011;3812;50.006;8.230;2023-03-01T06:11:22;20.20;;;13.43;;
7541;SDS011;3812;50.006;8.230;2023-03-01T06:13:49;19.93;;;13.50;;
7541;SDS011;3812;50.006;8.230;2023-03-01T06:16:16;17.57;;;11.60;;
7541;SDS011;3812;50.006;8.230;2023-03-01T06:18:43;23.20;;;13.00;;
7541;SDS011;3812;50.006;8.230;2023-03-01T06:21:11;19.20;;;12.53;;
7541;SDS011;3812;50.006;8.230;2023-03-01T06:23:38;18.03;;;12.70;;
7541;SDS011;3812;50.006;8.230;2023-03-01T06:26:07;24.27;;;12.60;;
7541;SDS011;3812;50.006;8.230;2023-03-01T06:28:35;23.47;;;12.50;;
7541;SDS011;3812;50.006;8.230;2023-03-01T06:31:02;19.43;;;12.63;;
7541;SDS011;3812;50.006;8.230;2023-03-01T06:33:33;21.30;;;12.30;;
7541;SDS011;3812;50.006;8.230;2023-03-01T06:36:01;21.57;;;13.03;;
7541;SDS011;3812;50.006;8.230;2023-03-01T06:38:28;20.63;;;12.43;;
7541;SDS011;3812;50.006;8.230;2023-03-01T06:40:55;19.80;;;12.83;;
7541;SDS011;3812;50.006;8.230;2023-03-01T06:43:24;18.70;;;11.47;;
7541;SDS011;3812;50.006;8.230;2023-03-01T06:45:51;20.70;;;13.10;;
7541;SDS011;3812;50.006;8.230;2023-03-01T06:48:18;16.83;;;11.50;;
7541;SDS011;3812;50.006;8.230;2023-03-01T06:50:46;18.50;;;11.70;;
7541;SDS011;3812;50.006;8.230;2023-03-01T06:53:13;17.57;;;11.13;;
7541;SDS011;3812;50.006;8.230;2023-03-01T06:55:40;17.50;;;11.27;;
7541;SDS011;3812;50.006;8.230;2023-03-01T06:58:08;17.27;;;11.20;;
7541;SDS011;3812;50.006;8.230;2023-03-01T07:00:37;19.33;;;11.40;;
7541;SDS011;3812;50.006;8.230;2023-03-01T07:03:05;17.40;;;11.77;;
7541;SDS011;3812;50.006;8.230;2023-03-01T07:05:33;17.60;;;10.70;;
7541;SDS011;3812;50.006;8.230;2023-03-01T07:08:00;17.97;;;11.30;;
7541;SDS011;3812;50.006;8.230;2023-03-01T07:10:28;15.53;;;10.73;;
7541;SDS011;3812;50.006;8.230;2023-03-01T07:12:55;15.80;;;10.47;;
7541;SDS011;3812;50.006;8.230;2023-03-01T07:15:23;15.50;;;10.00;;
7541;SDS011;3812;50.006;8.230;2023-03-01T07:17:51;14.57;;;10.50;;
7541;SDS011;3812;50.006;8.230;2023-03-01T07:20:19;15.30;;;10.50;;
7541;SDS011;3812;50.006;8.230;2023-03-01T07:22:49;17.83;;;10.90;;
7541;SDS011;3812;50.006;8.230;2023-03-01T07:25:16;16.00;;;10.13;;
7541;SDS011;3812;50.006;8.230;2023-03-01T07:27:44;14.20;;;9.80;;
7541;SDS011;3812;50.006;8.230;2023-03-01T07:30:15;17.70;;;10.50;;
7541;SDS011;3812;50.006;8.230;2023-03-01T07:32:43;14.90;;;9.83;;
7541;SDS011;3812;50.006;8.230;2023-03-01T07:35:12;14.93;;;9.80;;
7541;SDS011;3812;50.006;8.230;2023-03-01T07:37:39;16.83;;;10.37;;
7541;SDS011;3812;50.006;8.230;2023-03-01T07:40:07;14.27;;;9.73;;
7541;SDS011;3812;50.006;8.230;2023-03-01T07:42:35;16.93;;;11.43;;
7541;SDS011;3812;50.006;8.230;2023-03-01T07:45:02;17.00;;;10.43;;
7541;SDS011;3812;50.006;8.230;2023-03-01T07:47:29;16.20;;;10.43;;
7541;SDS011;3812;50.006;8.230;2023-03-01T07:49:56;14.17;;;10.17;;
7541;SDS011;3812;50.006;8.230;2023-03-01T07:52:25;16.77;;;10.50;;
7541;SDS011;3812;50.006;8.230;2023-03-01T07:54:52;14.93;;;9.77;;
7541;SDS011;3812;50.006;8.230;2023-03-01T07:57:19;13.63;;;9.47;;
7541;SDS011;3812;50.006;8.230;2023-03-01T07:59:47;13.77;;;9.70;;
7541;SDS011;3812;50.006;8.230;2023-03-01T08:02:14;16.17;;;10.03;;
7541;SDS011;3812;50.006;8.230;2023-03-01T08:04:41;14.63;;;10.27;;
7541;SDS011;3812;50.006;8.230;2023-03-01T08:07:08;17.80;;;10.30;;
7541;SDS011;3812;50.006;8.230;2023-03-01T08:09:37;13.40;;;9.23;;
7541;SDS011;3812;50.006;8.230;2023-03-01T08:12:04;13.87;;;9.93;;
7541;SDS011;3812;50.006;8.230;2023-03-01T08:14:32;15.13;;;10.90;;
7541;SDS011;3812;50.006;8.230;2023-03-01T08:16:59;14.53;;;10.07;;
7541;SDS011;3812;50.006;8.230;2023-03-01T08:19:28;18.10;;;10.23;;
7541;SDS011;3812;50.006;8.230;2023-03-01T08:21:55;16.00;;;10.23;;
7541;SDS011;3812;50.006;8.230;2023-03-01T08:24:23;14.40;;;9.50;;
7541;SDS011;3812;50.006;8.230;2023-03-01T08:26:52;16.10;;;10.37;;
7541;SDS011;3812;50.006;8.230;2023-03-01T08:29:19;14.30;;;9.73;;
7541;SDS011;3812;50.006;8.230;2023-03-01T08:31:47;14.97;;;10.43;;
7541;SDS011;3812;50.006;8.230;2023-03-01T08:34:15;15.80;;;10.17;;
7541;SDS011;3812;50.006;8.230;2023-03-01T08:36:43;16.67;;;9.77;;
7541;SDS011;3812;50.006;8.230;2023-03-01T08:39:12;15.87;;;10.17;;
7541;SDS011;3812;50.006;8.230;2023-03-01T08:41:39;14.63;;;10.07;;
7541;SDS011;3812;50.006;8.230;2023-03-01T08:44:08;13.43;;;9.67;;
7541;SDS011;3812;50.006;8.230;2023-03-01T08:46:37;17.40;;;11.07;;
7541;SDS011;3812;50.006;8.230;2023-03-01T08:49:05;15.07;;;9.70;;
7541;SDS011;3812;50.006;8.230;2023-03-01T08:51:33;15.70;;;10.23;;
7541;SDS011;3812;50.006;8.230;2023-03-01T08:54:02;15.23;;;9.73;;
7541;SDS011;3812;50.006;8.230;2023-03-01T08:56:29;15.87;;;9.57;;
7541;SDS011;3812;50.006;8.230;2023-03-01T08:58:56;16.80;;;10.00;;
7541;SDS011;3812;50.006;8.230;2023-03-01T09:01:25;15.27;;;9.90;;
7541;SDS011;3812;50.006;8.230;2023-03-01T09:03:52;17.80;;;11.37;;
7541;SDS011;3812;50.006;8.230;2023-03-01T09:06:19;15.67;;;10.20;;
7541;SDS011;3812;50.006;8.230;2023-03-01T09:08:47;13.27;;;9.83;;
7541;SDS011;3812;50.006;8.230;2023-03-01T09:11:15;15.60;;;10.87;;
7541;SDS011;3812;50.006;8.230;2023-03-01T09:13:43;13.03;;;10.27;;
7541;SDS011;3812;50.006;8.230;2023-03-01T09:16:10;14.67;;;9.90;;
7541;SDS011;3812;50.006;8.230;2023-03-01T09:18:39;17.73;;;10.47;;
7541;SDS011;3812;50.006;8.230;2023-03-01T09:21:07;15.67;;;9.97;;
7541;SDS011;3812;50.006;8.230;2023-03-01T09:23:35;15.83;;;10.33;;
7541;SDS011;3812;50.006;8.230;2023-03-01T09:26:04;17.43;;;11.30;;
7541;SDS011;3812;50.006;8.230;2023-03-01T09:28:31;16.63;;;10.67;;
7541;SDS011;3812;50.006;8.230;2023-03-01T09:30:59;15.97;;;10.57;;
7541;SDS011;3812;50.006;8.230;2023-03-01T09:33:26;15.50;;;11.53;;
7541;SDS011;3812;50.006;8.230;2023-03-01T09:35:57;14.00;;;10.37;;
7541;SDS011;3812;50.006;8.230;2023-03-01T09:38:24;15.37;;;10.90;;
7541;SDS011;3812;50.006;8.230;2023-03-01T09:40:52;15.60;;;10.27;;
7541;SDS011;3812;50.006;8.230;2023-03-01T09:43:21;17.83;;;11.23;;
7541;SDS011;3812;50.006;8.230;2023-03-01T09:45:50;12.97;;;9.73;;
7541;SDS011;3812;50.006;8.230;2023-03-01T09:48:23;15.27;;;10.50;;
7541;SDS011;3812;50.006;8.230;2023-03-01T09:50:50;17.23;;;11.70;;
7541;SDS011;3812;50.006;8.230;2023-03-01T09:53:20;15.43;;;11.17;;
7541;SDS011;3812;50.006;8.230;2023-03-01T09:55:49;14.87;;;10.50;;
7541;SDS011;3812;50.006;8.230;2023-03-01T09:58:25;16.40;;;10.87;;
7541;SDS011;3812;50.006;8.230;2023-03-01T10:00:55;13.77;;;10.23;;
7541;SDS011;3812;50.006;8.230;2023-03-01T10:03:24;15.60;;;11.10;;
7541;SDS011;3812;50.006;8.230;2023-03-01T10:05:55;15.47;;;10.63;;
7541;SDS011;3812;50.006;8.230;2023-03-01T10:08:29;13.90;;;11.30;;
7541;SDS011;3812;50.006;8.230;2023-03-01T10:10:58;14.13;;;10.67;;
7541;SDS011;3812;50.006;8.230;2023-03-01T10:13:28;16.60;;;10.83;;
7541;SDS011;3812;50.006;8.230;2023-03-01T10:15:57;15.83;;;11.33;;
7541;SDS011;3812;50.006;8.230;2023-03-01T10:18:27;14.17;;;10.70;;
7541;SDS011;3812;50.006;8.230;2023-03-01T10:20:58;18.40;;;11.33;;
7541;SDS011;3812;50.006;8.230;2023-03-01T10:23:27;15.53;;;11.57;;
7541;SDS011;3812;50.006;8.230;2023-03-01T10:26:08;16.00;;;10.37;;
7541;SDS011;3812;50.006;8.230;2023-03-01T10:28:40;14.40;;;10.70;;
7541;SDS011;3812;50.006;8.230;2023-03-01T10:31:11;16.57;;;10.83;;
7541;SDS011;3812;50.006;8.230;2023-03-01T10:33:39;17.70;;;11.57;;
7541;SDS011;3812;50.006;8.230;2023-03-01T10:36:06;17.33;;;10.83;;
7541;SDS011;3812;50.006;8.230;2023-03-01T10:38:46;21.03;;;12.00;;
7541;SDS011;3812;50.006;8.230;2023-03-01T10:41:15;15.90;;;11.37;;
7541;SDS011;3812;50.006;8.230;2023-03-01T10:43:43;17.47;;;11.53;;
7541;SDS011;3812;50.006;8.230;2023-03-01T10:46:22;15.70;;;11.37;;
7541;SDS011;3812;50.006;8.230;2023-03-01T10:48:58;15.70;;;11.73;;
7541;SDS011;3812;50.006;8.230;2023-03-01T10:51:32;15.03;;;11.03;;
7541;SDS011;3812;50.006;8.230;2023-03-01T10:53:59;15.80;;;10.43;;
7541;SDS011;3812;50.006;8.230;2023-03-01T10:56:29;18.57;;;11.63;;
7541;SDS011;3812;50.006;8.230;2023-03-01T10:59:19;17.50;;;11.50;;
7541;SDS011;3812;50.006;8.230;2023-03-01T11:01:53;14.77;;;11.17;;
7541;SDS011;3812;50.006;8.230;2023-03-01T11:04:28;17.10;;;10.70;;
7541;SDS011;3812;50.006;8.230;2023-03-01T11:06:57;15.83;;;10.63;;
7541;SDS011;3812;50.006;8.230;2023-03-01T11:09:25;13.57;;;10.40;;
7541;SDS011;3812;50.006;8.230;2023-03-01T11:11:54;15.07;;;11.37;;
7541;SDS011;3812;50.006;8.230;2023-03-01T11:14:22;16.00;;;11.20;;
7541;SDS011;3812;50.006;8.230;2023-03-01T11:16:57;17.13;;;11.40;;
7541;SDS011;3812;50.006;8.230;2023-03-01T11:19:25;15.80;;;11.13;;
7541;SDS011;3812;50.006;8.230;2023-03-01T11:21:54;14.60;;;10.07;;
7541;SDS011;3812;50.006;8.230;2023-03-01T11:24:24;15.40;;;11.00;;
7541;SDS011;3812;50.006;8.230;2023-03-01T11:26:54;14.27;;;10.30;;
7541;SDS011;3812;50.006;8.230;2023-03-01T11:29:25;16.33;;;10.77;;
7541;SDS011;3812;50.006;8.230;2023-03-01T11:31:55;13.03;;;10.30;;
7541;SDS011;3812;50.006;8.230;2023-03-01T11:34:24;14.73;;;10.80;;
7541;SDS011;3812;50.006;8.230;2023-03-01T11:36:56;14.90;;;10.67;;
7541;SDS011;3812;50.006;8.230;2023-03-01T11:39:27;14.37;;;10.50;;
7541;SDS011;3812;50.006;8.230;2023-03-01T11:42:00;12.63;;;10.17;;
7541;SDS011;3812;50.006;8.230;2023-03-01T11:44:29;13.03;;;9.50;;
7541;SDS011;3812;50.006;8.230;2023-03-01T11:47:07;14.17;;;9.73;;
7541;SDS011;3812;50.006;8.230;2023-03-01T11:49:40;11.73;;;9.17;;
7541;SDS011;3812;50.006;8.230;2023-03-01T11:52:14;12.30;;;9.07;;
7541;SDS011;3812;50.006;8.230;2023-03-01T11:54:46;13.27;;;9.23;;
7541;SDS011;3812;50.006;8.230;2023-03-01T11:57:20;13.77;;;9.60;;
7541;SDS011;3812;50.006;8.230;2023-03-01T11:59:56;11.50;;;9.33;;
7541;SDS011;3812;50.006;8.230;2023-03-01T12:02:32;10.33;;;8.73;;
7541;SDS011;3812;50.006;8.230;2023-03-01T12:05:12;11.10;;;9.20;;
7541;SDS011;3812;50.006;8.230;2023-03-01T12:07:45;12.43;;;9.33;;
7541;SDS011;3812;50.006;8.230;2023-03-01T12:10:17;10.80;;;9.27;;
7541;SDS011;3812;50.006;8.230;2023-03-01T12:12:51;10.43;;;8.77;;
7541;SDS011;3812;50.006;8.230;2023-03-01T12:15:28;10.73;;;9.30;;
7541;SDS011;3812;50.006;8.230;2023-03-01T12:18:09;10.63;;;8.27;;
7541;SDS011;3812;50.006;8.230;2023-03-01T12:20:41;10.83;;;7.60;;
7541;SDS011;3812;50.006;8.230;2023-03-01T12:23:22;10.47;;;8.57;;
7541;SDS011;3812;50.006;8.230;2023-03-01T12:25:54;9.33;;;7.73;;
7541;SDS011;3812;50.006;8.230;2023-03-01T12:28:29;9.33;;;7.50;;
7541;SDS011;3812;50.006;8.230;2023-03-01T12:33:49;9.67;;;8.17;;
7541;SDS011;3812;50.006;8.230;2023-03-01T12:36:26;8.37;;;7.50;;
7541;SDS011;3812;50.006;8.230;2023-03-01T12:38:59;8.13;;;7.17;;
7541;SDS011;3812;50.006;8.230;2023-03-01T12:41:35;11.10;;;8.10;;
7541;SDS011;3812;50.006;8.230;2023-03-01T12:44:13;8.33;;;7.53;;
7541;SDS011;3812;50.006;8.230;2023-03-01T12:46:53;8.60;;;7.00;;
7541;SDS011;3812;50.006;8.230;2023-03-01T12:49:23;9.07;;;7.50;;
7541;SDS011;3812;50.006;8.230;2023-03-01T12:51:54;8.47;;;7.30;;
7541;SDS011;3812;50.006;8.230;2023-03-01T12:54:25;7.83;;;6.97;;
7541;SDS011;3812;50.006;8.230;2023-03-01T12:56:54;7.73;;;6.67;;
7541;SDS011;3812;50.006;8.230;2023-03-01T12:59:24;9.70;;;6.90;;
7541;SDS011;3812;50.006;8.230;2023-03-01T13:01:56;8.33;;;6.93;;
7541;SDS011;3812;50.006;8.230;2023-03-01T13:04:31;8.93;;;6.83;;
7541;SDS011;3812;50.006;8.230;2023-03-01T13:07:04;9.37;;;7.20;;
7541;SDS011;3812;50.006;8.230;2023-03-01T13:09:37;8.77;;;7.83;;
7541;SDS011;3812;50.006;8.230;2023-03-01T13:14:48;8.70;;;7.23;;
7541;SDS011;3812;50.006;8.230;2023-03-01T13:17:31;8.63;;;6.70;;
7541;SDS011;3812;50.006;8.230;2023-03-01T13:19:58;7.93;;;6.67;;
7541;SDS011;3812;50.006;8.230;2023-03-01T13:22:26;6.90;;;6.17;;
7541;SDS011;3812;50.006;8.230;2023-03-01T13:25:00;8.67;;;6.20;;
7541;SDS011;3812;50.006;8.230;2023-03-01T13:27:28;6.77;;;6.03;;
7541;SDS011;3812;50.006;8.230;2023-03-01T13:29:57;7.40;;;6.47;;
7541;SDS011;3812;50.006;8.230;2023-03-01T13:32:29;7.63;;;6.07;;
7541;SDS011;3812;50.006;8.230;2023-03-01T13:34:58;7.50;;;6.53;;
7541;SDS011;3812;50.006;8.230;2023-03-01T13:37:27;7.77;;;6.33;;
7541;SDS011;3812;50.006;8.230;2023-03-01T13:39:56;7.20;;;6.50;;
7541;SDS011;3812;50.006;8.230;2023-03-01T13:42:40;18.73;;;7.00;;
7541;SDS011;3812;50.006;8.230;2023-03-01T13:45:17;9.83;;;6.47;;
7541;SDS011;3812;50.006;8.230;2023-03-01T13:47:47;7.20;;;6.47;;
7541;SDS011;3812;50.006;8.230;2023-03-01T13:50:16;8.37;;;6.63;;
7541;SDS011;3812;50.006;8.230;2023-03-01T13:52:46;7.77;;;6.53;;
7541;SDS011;3812;50.006;8.230;2023-03-01T13:55:17;8.27;;;6.60;;
7541;SDS011;3812;50.006;8.230;2023-03-01T13:57:46;7.33;;;6.50;;
7541;SDS011;3812;50.006;8.230;2023-03-01T14:00:27;7.60;;;6.20;;
7541;SDS011;3812;50.006;8.230;2023-03-01T14:03:05;7.60;;;6.03;;
7541;SDS011;3812;50.006;8.230;2023-03-01T14:05:35;7.33;;;6.00;;
7541;SDS011;3812;50.006;8.230;2023-03-01T14:08:03;6.80;;;6.10;;
7541;SDS011;3812;50.006;8.230;2023-03-01T14:10:32;6.80;;;6.10;;
7541;SDS011;3812;50.006;8.230;2023-03-01T14:13:04;7.33;;;5.80;;
7541;SDS011;3812;50.006;8.230;2023-03-01T14:15:37;7.13;;;5.90;;
7541;SDS011;3812;50.006;8.230;2023-03-01T14:18:07;6.93;;;6.23;;
7541;SDS011;3812;50.006;8.230;2023-03-01T14:20:38;6.63;;;5.90;;
7541;SDS011;3812;50.006;8.230;2023-03-01T14:23:09;7.13;;;6.43;;
7541;SDS011;3812;50.006;8.230;2023-03-01T14:25:37;6.67;;;5.60;;
7541;SDS011;3812;50.006;8.230;2023-03-01T14:28:11;6.80;;;5.50;;
7541;SDS011;3812;50.006;8.230;2023-03-01T14:30:43;7.07;;;6.00;;
7541;SDS011;3812;50.006;8.230;2023-03-01T14:33:21;6.07;;;5.37;;
7541;SDS011;3812;50.006;8.230;2023-03-01T14:35:52;7.30;;;5.73;;
7541;SDS011;3812;50.006;8.230;2023-03-01T14:38:20;8.40;;;6.40;;
7541;SDS011;3812;50.006;8.230;2023-03-01T14:40:47;9.10;;;6.23;;
7541;SDS011;3812;50.006;8.230;2023-03-01T14:43:19;7.80;;;5.80;;
7541;SDS011;3812;50.006;8.230;2023-03-01T14:45:49;7.37;;;6.27;;
7541;SDS011;3812;50.006;8.230;2023-03-01T14:48:17;7.67;;;6.30;;
7541;SDS011;3812;50.006;8.230;2023-03-01T14:50:45;7.33;;;5.70;;
7541;SDS011;3812;50.006;8.230;2023-03-01T14:53:15;7.13;;;5.80;;
7541;SDS011;3812;50.006;8.230;2023-03-01T14:55:44;7.10;;;6.40;;
7541;SDS011;3812;50.006;8.230;2023-03-01T14:58:13;7.53;;;6.13;;
7541;SDS011;3812;50.006;8.230;2023-03-01T15:00:43;6.93;;;5.77;;
7541;SDS011;3812;50.006;8.230;2023-03-01T15:03:17;6.97;;;6.20;;
7541;SDS011;3812;50.006;8.230;2023-03-01T15:05:47;6.83;;;5.73;;
7541;SDS011;3812;50.006;8.230;2023-03-01T15:08:16;6.23;;;5.63;;
7541;SDS011;3812;50.006;8.230;2023-03-01T15:10:55;6.97;;;5.40;;
7541;SDS011;3812;50.006;8.230;2023-03-01T15:13:24;7.13;;;5.97;;
7541;SDS011;3812;50.006;8.230;2023-03-01T15:15:52;7.27;;;6.40;;
7541;SDS011;3812;50.006;8.230;2023-03-01T15:18:22;8.10;;;5.90;;
7541;SDS011;3812;50.006;8.230;2023-03-01T15:20:52;6.67;;;5.57;;